Time;durP1;ratioP1;P1;durP2;ratioP2;P2;SDS_P1;SDS_P2;PMS_P1;PMS_P2;Temp;Humidity;BMP_temperature;BMP_pressure;BME280_temperature;BME280_humidity;BME280_pressure;Samples;Min_cycle;Max_cycle;Signal;HPM_P1;HPM_P2
2024/03/23 00:00:04;;;;;;;24.27;6.80;;;;;;;11.48;61.46;100530.69;5055735;28;20550;-75
2024/03/23 00:02:30;;;;;;;19.20;7.03;;;;;;;12.09;60.60;100530.78;5055752;28;20412;-76
2024/03/23 00:04:57;;;;;;;19.10;6.87;;;;;;;11.87;61.22;100524.66;5055440;28;20419;-75
2024/03/23 00:07:23;;;;;;;22.30;6.90;;;;;;;12.04;61.51;100516.00;5070965;28;20450;-76
2024/03/23 00:09:49;;;;;;;32.87;7.40;;;;;;;11.85;61.60;100512.47;5075492;28;20411;-76
2024/03/23 00:12:16;;;;;;;21.03;6.10;;;;;;;12.42;60.30;100505.50;5074856;28;20416;-76
2024/03/23 00:14:42;;;;;;;23.33;7.20;;;;;;;12.11;60.57;100515.13;5074854;28;20419;-76
2024/03/23 00:17:09;;;;;;;25.17;6.63;;;;;;;12.46;59.71;100502.03;5060451;28;20428;-76
2024/03/23 00:19:35;;;;;;;20.30;6.10;;;;;;;12.35;60.58;100502.91;5052536;28;21154;-75
2024/03/23 00:22:01;;;;;;;18.27;7.63;;;;;;;12.60;59.83;100504.59;5055245;28;20863;-76
2024/03/23 00:24:28;;;;;;;24.13;7.17;;;;;;;12.30;60.80;100497.69;5054260;28;20762;-76
2024/03/23 00:26:54;;;;;;;24.33;7.23;;;;;;;12.39;59.99;100484.59;5055837;28;20468;-77
2024/03/23 00:29:21;;;;;;;22.90;6.90;;;;;;;11.49;62.14;100490.66;5055144;28;20407;-77
2024/03/23 00:31:47;;;;;;;22.70;6.00;;;;;;;12.25;60.84;100488.97;5044949;28;20482;-77
2024/03/23 00:34:13;;;;;;;16.37;5.20;;;;;;;12.40;60.72;100481.09;5054671;28;20402;-76
2024/03/23 00:36:40;;;;;;;31.13;7.10;;;;;;;12.73;59.23;100471.44;5054914;28;20414;-75
2024/03/23 00:39:08;;;;;;;23.03;6.87;;;;;;;12.08;60.33;100470.69;5054504;28;20447;-76
2024/03/23 00:41:35;;;;;;;23.13;7.03;;;;;;;12.25;60.65;100468.94;5053830;28;20409;-76
2024/03/23 00:44:01;;;;;;;31.83;7.47;;;;;;;12.62;59.84;100460.13;5034558;28;20444;-76
2024/03/23 00:46:27;;;;;;;23.80;7.40;;;;;;;12.87;58.97;100447.84;5034127;28;20411;-76
2024/03/23 00:48:54;;;;;;;21.97;7.67;;;;;;;12.59;59.71;100457.53;5035405;28;20409;-76
2024/03/23 00:51:19;;;;;;;26.47;8.20;;;;;;;12.30;60.02;100461.97;5034322;28;20538;-75
2024/03/23 00:53:45;;;;;;;20.03;7.70;;;;;;;12.95;59.08;100442.56;5034577;28;20387;-75
2024/03/23 00:56:11;;;;;;;20.97;9.10;;;;;;;12.27;60.42;100450.63;5048828;28;20267;-75
2024/03/23 00:58:36;;;;;;;21.13;8.87;;;;;;;12.25;60.45;100447.16;5052914;28;20225;-76
2024/03/23 01:01:03;;;;;;;26.70;9.13;;;;;;;12.54;59.60;100444.50;5054627;28;20170;-76
2024/03/23 01:03:29;;;;;;;18.53;7.87;;;;;;;12.19;60.34;100447.16;5054301;28;20178;-76
2024/03/23 01:05:54;;;;;;;17.50;9.40;;;;;;;12.22;60.68;100432.34;5055413;28;20447;-76
2024/03/23 01:08:19;;;;;;;18.60;8.10;;;;;;;12.01;61.77;100430.63;5074541;28;20198;-76
2024/03/23 01:10:57;;;;;;;21.67;8.33;;;;;;;12.46;60.20;100426.19;5074330;28;20172;-75
2024/03/23 01:13:22;;;;;;;23.43;7.00;;;;;;;12.28;60.32;100427.09;5074575;28;20163;-76
2024/03/23 01:15:49;;;;;;;20.63;7.50;;;;;;;12.10;60.91;100437.63;5042300;28;20428;-76
2024/03/23 01:18:14;;;;;;;29.27;7.30;;;;;;;11.83;61.40;100431.50;5048936;28;20176;-76
2024/03/23 01:20:39;;;;;;;22.27;7.00;;;;;;;11.89;61.85;100422.78;5054670;28;20387;-76
2024/03/23 01:23:05;;;;;;;23.97;7.50;;;;;;;11.74;62.61;100415.84;5054146;28;20174;-76
2024/03/23 01:25:30;;;;;;;17.63;7.40;;;;;;;11.59;62.20;100411.50;5054149;28;20173;-76
2024/03/23 01:27:55;;;;;;;17.70;6.53;;;;;;;12.04;61.25;100412.38;5055993;28;20702;-76
2024/03/23 01:30:20;;;;;;;23.97;6.93;;;;;;;11.63;62.42;100415.84;5060943;28;20173;-75
2024/03/23 01:32:46;;;;;;;22.53;7.10;;;;;;;11.26;63.78;100416.69;5057016;28;20178;-75
2024/03/23 01:35:12;;;;;;;19.30;7.47;;;;;;;11.71;62.29;100416.69;5037258;28;20174;-77
2024/03/23 01:37:37;;;;;;;18.63;7.90;;;;;;;11.76;62.32;100407.13;5035820;28;20434;-76
2024/03/23 01:40:04;;;;;;;25.93;7.97;;;;;;;11.99;62.40;100395.81;5034474;28;20205;-76
2024/03/23 01:42:29;;;;;;;30.87;8.10;;;;;;;11.97;61.77;100400.16;5034544;28;20166;-76
2024/03/23 01:44:54;;;;;;;19.17;6.50;;;;;;;12.20;61.13;100399.25;5033726;28;20761;-76
2024/03/23 01:47:19;;;;;;;24.50;7.57;;;;;;;11.94;61.54;100389.69;5033634;28;20260;-76
2024/03/23 01:49:45;;;;;;;19.17;6.53;;;;;;;11.58;62.26;100387.13;5034117;28;20173;-76
2024/03/23 01:52:10;;;;;;;20.73;6.87;;;;;;;11.79;62.28;100383.63;5033940;28;20181;-76
2024/03/23 01:54:36;;;;;;;15.67;6.50;;;;;;;12.20;61.36;100375.75;5033554;28;20177;-76
2024/03/23 01:57:01;;;;;;;23.43;6.30;;;;;;;12.23;60.98;100371.38;5034181;28;20198;-75
2024/03/23 01:59:27;;;;;;;18.50;6.57;;;;;;;11.78;61.73;100374.06;5033840;28;20463;-75
2024/03/23 02:01:52;;;;;;;24.67;6.67;;;;;;;11.99;61.61;100367.09;5033873;28;20173;-76
2024/03/23 02:04:17;;;;;;;25.53;7.80;;;;;;;12.46;59.75;100354.72;5033833;28;20177;-76
2024/03/23 02:06:43;;;;;;;17.33;6.47;;;;;;;11.93;60.94;100359.22;5053950;28;20192;-76
2024/03/23 02:09:08;;;;;;;17.50;6.93;;;;;;;11.54;62.22;100366.22;5075480;28;20587;-76
2024/03/23 02:11:33;;;;;;;19.30;6.53;;;;;;;11.51;62.12;100366.25;5075873;28;20252;-76
2024/03/23 02:13:59;;;;;;;22.70;6.67;;;;;;;11.87;61.95;100362.72;5075727;28;20226;-76
2024/03/23 02:16:24;;;;;;;19.97;7.43;;;;;;;11.62;62.71;100357.53;5075519;28;20538;-76
2024/03/23 02:18:49;;;;;;;21.43;6.40;;;;;;;10.77;63.82;100365.28;5074374;28;20226;-76
2024/03/23 02:21:15;;;;;;;20.77;7.37;;;;;;;11.49;63.09;100347.06;5076687;28;20251;-76
2024/03/23 02:23:40;;;;;;;16.00;6.37;;;;;;;11.58;62.41;100334.91;5075715;28;20168;-76
2024/03/23 02:26:06;;;;;;;16.53;6.97;;;;;;;11.59;62.29;100341.84;5075463;28;20815;-76
2024/03/23 02:28:31;;;;;;;21.60;6.30;;;;;;;12.16;60.38;100329.59;5074036;28;20212;-76
2024/03/23 02:30:57;;;;;;;20.73;7.00;;;;;;;11.73;61.34;100328.81;5067649;28;20173;-76
2024/03/23 02:33:22;;;;;;;18.93;7.00;;;;;;;11.53;61.90;100326.22;5054470;28;20174;-75
2024/03/23 02:35:47;;;;;;;19.97;6.60;;;;;;;12.03;61.28;100327.03;5053588;28;20173;-76
2024/03/23 02:38:13;;;;;;;18.20;6.10;;;;;;;11.80;61.63;100322.69;5055084;28;20171;-76
2024/03/23 02:40:38;;;;;;;21.50;6.77;;;;;;;10.84;64.11;100341.81;5055659;28;20261;-77
2024/03/23 02:43:04;;;;;;;12.80;7.00;;;;;;;10.21;64.69;100335.50;5055441;28;20229;-75
2024/03/23 02:45:29;;;;;;;21.57;6.70;;;;;;;11.00;63.68;100325.34;5055136;28;20657;-75
2024/03/23 02:47:55;;;;;;;19.70;7.50;;;;;;;11.14;63.35;100327.97;5054100;28;20560;-75
2024/03/23 02:50:21;;;;;;;26.93;7.20;;;;;;;11.39;62.68;100322.72;5053219;28;20235;-75
2024/03/23 02:52:47;;;;;;;24.20;7.80;;;;;;;11.03;62.90;100325.34;5053078;28;20173;-75
2024/03/23 02:55:12;;;;;;;18.50;6.60;;;;;;;11.40;62.63;100327.94;5052995;28;20412;-76
2024/03/23 02:57:38;;;;;;;20.17;6.87;;;;;;;11.19;63.12;100322.72;5052715;28;20504;-75
2024/03/23 03:00:05;;;;;;;28.90;7.47;;;;;;;11.51;62.32;100319.25;5052174;28;20208;-76
2024/03/23 03:02:30;;;;;;;18.33;7.00;;;;;;;11.14;62.99;100312.31;5052579;28;20176;-75
2024/03/23 03:04:55;;;;;;;19.43;6.70;;;;;;;11.25;62.32;100310.56;5052517;28;20382;-75
2024/03/23 03:07:20;;;;;;;16.60;6.07;;;;;;;11.39;62.91;100302.75;5066731;28;20269;-75
2024/03/23 03:09:46;;;;;;;17.47;6.70;;;;;;;11.10;62.92;100301.00;5072427;28;20160;-76
2024/03/23 03:12:11;;;;;;;17.67;6.47;;;;;;;11.07;63.35;100287.09;5072567;28;20173;-75
2024/03/23 03:14:37;;;;;;;27.23;7.80;;;;;;;11.03;62.97;100286.22;5071644;28;20173;-76
2024/03/23 03:17:02;;;;;;;17.60;6.00;;;;;;;11.21;62.59;100284.47;5073004;28;20191;-76
2024/03/23 03:19:27;;;;;;;16.43;6.33;;;;;;;11.09;63.21;100286.19;5077891;28;20197;-76
2024/03/23 03:21:53;;;;;;;17.20;7.63;;;;;;;11.09;63.12;100295.78;5078087;28;20173;-75
2024/03/23 03:24:18;;;;;;;18.60;6.73;;;;;;;11.12;63.07;100287.94;5073181;28;20673;-76
2024/03/23 03:26:44;;;;;;;16.13;8.13;;;;;;;10.70;63.34;100285.31;5072019;28;20755;-76
2024/03/23 03:29:10;;;;;;;25.40;7.43;;;;;;;10.41;64.94;100293.91;5072022;28;20646;-76
2024/03/23 03:31:35;;;;;;;22.60;6.90;;;;;;;11.15;62.90;100277.53;5060771;28;20767;-75
2024/03/23 03:34:00;;;;;;;21.93;7.83;;;;;;;11.35;62.49;100269.69;5053413;28;20420;-76
2024/03/23 03:36:26;;;;;;;23.10;6.67;;;;;;;11.35;62.52;100274.03;5052313;28;20200;-76
2024/03/23 03:38:51;;;;;;;23.57;7.00;;;;;;;11.14;62.82;100269.72;5051808;28;20280;-75
2024/03/23 03:41:16;;;;;;;22.07;7.33;;;;;;;10.56;63.46;100261.81;5052881;28;20173;-75
2024/03/23 03:43:41;;;;;;;19.23;6.97;;;;;;;10.66;63.96;100262.69;5052375;28;20170;-75
2024/03/23 03:46:10;;;;;;;15.90;6.53;;;;;;;11.02;63.33;100253.16;5051859;28;20190;-75
2024/03/23 03:48:36;;;;;;;20.50;6.60;;;;;;;11.38;62.27;100248.78;5053456;28;20601;-75
2024/03/23 03:51:01;;;;;;;18.77;7.13;;;;;;;10.96;62.36;100250.56;5055258;28;20438;-75
2024/03/23 03:53:26;;;;;;;22.47;7.57;;;;;;;10.78;62.92;100249.69;5055614;28;20178;-76
2024/03/23 03:55:52;;;;;;;15.83;6.43;;;;;;;10.56;64.30;100243.56;5055063;28;20173;-75
2024/03/23 03:58:17;;;;;;;18.73;8.13;;;;;;;10.06;64.86;100250.34;5077500;22;20760;-75
2024/03/23 04:00:42;;;;;;;22.10;7.10;;;;;;;10.30;65.39;100248.69;5054305;28;20620;-74
2024/03/23 04:03:08;;;;;;;15.80;7.77;;;;;;;10.66;64.33;100240.97;5054716;28;20540;-76
2024/03/23 04:05:33;;;;;;;17.67;6.67;;;;;;;10.69;63.64;100236.66;5054445;28;20174;-74
2024/03/23 04:07:58;;;;;;;17.80;6.97;;;;;;;10.78;63.59;100233.16;5054407;28;20207;-76
2024/03/23 04:10:24;;;;;;;24.70;7.73;;;;;;;10.59;63.42;100229.66;5054680;28;20177;-76
2024/03/23 04:12:50;;;;;;;19.67;6.73;;;;;;;11.07;63.30;100235.78;5055528;28;20176;-76
2024/03/23 04:15:16;;;;;;;17.00;7.00;;;;;;;10.92;63.25;100239.25;5055126;28;20466;-76
2024/03/23 04:17:42;;;;;;;18.33;6.70;;;;;;;10.89;63.25;100239.28;5054865;28;20247;-76
2024/03/23 04:20:10;;;;;;;45.90;29.70;;;;;;;10.64;63.58;100225.34;5054492;28;20201;-75
2024/03/23 04:22:39;;;;;;;23.57;7.23;;;;;;;11.06;63.42;100223.59;5054869;28;20398;-75
2024/03/23 04:25:06;;;;;;;18.23;6.33;;;;;;;11.31;62.64;100215.72;5054413;28;20387;-74
2024/03/23 04:27:32;;;;;;;18.33;6.93;;;;;;;10.91;62.82;100203.63;5054457;28;20438;-75
2024/03/23 04:29:58;;;;;;;20.23;6.30;;;;;;;11.04;63.13;100198.38;5054437;28;20455;-75
2024/03/23 04:32:23;;;;;;;19.10;6.03;;;;;;;11.15;62.30;100203.59;5054426;28;20451;-75
2024/03/23 04:34:48;;;;;;;17.77;5.90;;;;;;;10.68;63.25;100214.03;5054370;28;20635;-75
2024/03/23 04:37:14;;;;;;;26.97;7.80;;;;;;;10.42;64.19;100227.91;5054284;28;20618;-75
2024/03/23 04:39:39;;;;;;;20.87;6.97;;;;;;;10.61;63.61;100235.78;5036039;28;20671;-76
2024/03/23 04:42:05;;;;;;;24.80;6.80;;;;;;;11.16;62.16;100240.09;5054318;28;20537;-76
2024/03/23 04:44:30;;;;;;;21.87;6.93;;;;;;;11.07;62.16;100238.38;5053819;28;20647;-75
2024/03/23 04:46:57;;;;;;;17.13;6.53;;;;;;;9.99;65.05;100247.72;5053710;28;20197;-75
2024/03/23 04:49:22;;;;;;;25.20;7.00;;;;;;;9.61;66.12;100249.28;5053538;28;20270;-76
2024/03/23 04:51:47;;;;;;;21.37;7.20;;;;;;;9.90;66.11;100251.16;5053705;28;20420;-76
2024/03/23 04:54:13;;;;;;;22.80;8.20;;;;;;;10.27;65.52;100253.91;5053615;28;20539;-76
2024/03/23 04:56:38;;;;;;;21.20;8.20;;;;;;;10.13;65.17;100235.59;5053158;28;20255;-75
2024/03/23 04:59:04;;;;;;;14.53;6.70;;;;;;;9.52;67.20;100231.00;5052514;28;20545;-76
2024/03/23 05:01:31;;;;;;;18.50;6.00;;;;;;;9.36;66.99;100217.03;5035568;28;20185;-76
2024/03/23 05:03:57;;;;;;;20.90;7.20;;;;;;;10.18;65.60;100210.44;5053500;28;20803;-76
2024/03/23 05:06:22;;;;;;;19.13;6.47;;;;;;;10.59;64.27;100209.72;5053572;28;20931;-75
2024/03/23 05:08:47;;;;;;;25.63;6.90;;;;;;;10.24;64.74;100215.69;5053124;28;20404;-76
2024/03/23 05:11:13;;;;;;;19.50;6.50;;;;;;;10.08;64.82;100216.47;5053456;28;20161;-76
2024/03/23 05:13:38;;;;;;;15.23;5.97;;;;;;;10.53;63.89;100208.81;5053679;28;20188;-75
2024/03/23 05:16:04;;;;;;;19.73;6.70;;;;;;;10.53;63.84;100204.47;5053750;28;20181;-76
2024/03/23 05:18:29;;;;;;;13.37;6.17;;;;;;;10.37;64.62;100213.16;5053227;28;20647;-76
2024/03/23 05:20:58;;;;;;;22.47;6.50;;;;;;;10.08;64.46;100206.97;5053621;28;20169;-76
2024/03/23 05:23:24;;;;;;;21.90;6.57;;;;;;;10.23;64.66;100208.72;5053424;28;20248;-76
2024/03/23 05:25:50;;;;;;;22.97;9.90;;;;;;;10.59;63.69;100203.59;5053161;28;20385;-74
2024/03/23 05:28:15;;;;;;;23.13;10.47;;;;;;;10.52;63.66;100207.09;5051976;28;20489;-75
2024/03/23 05:30:40;;;;;;;28.23;7.50;;;;;;;10.56;63.36;100203.63;5052814;28;20195;-74
2024/03/23 05:33:07;;;;;;;28.80;7.03;;;;;;;10.32;64.36;100205.25;5053095;28;20193;-75
2024/03/23 05:35:32;;;;;;;18.57;6.17;;;;;;;10.44;63.71;100204.47;5052797;28;20166;-75
2024/03/23 05:37:58;;;;;;;17.07;6.53;;;;;;;10.63;63.17;100201.88;5052651;28;20414;-75
2024/03/23 05:40:24;;;;;;;29.50;8.40;;;;;;;10.76;62.68;100198.41;5034520;28;20194;-76
2024/03/23 05:42:52;;;;;;;22.30;7.53;;;;;;;10.69;62.75;100192.31;5034620;28;20419;-76
2024/03/23 05:45:18;;;;;;;19.23;6.10;;;;;;;11.00;62.44;100194.94;5034620;28;20457;-75
2024/03/23 05:47:44;;;;;;;19.53;8.03;;;;;;;9.91;64.22;100187.81;5034545;28;20442;-76
2024/03/23 05:50:12;;;;;;;17.60;6.00;;;;;;;10.75;62.64;100168.84;5034521;28;20603;-75
2024/03/23 05:52:37;;;;;;;15.57;7.23;;;;;;;10.78;62.98;100168.88;5052463;28;20508;-76
2024/03/23 05:55:03;;;;;;;15.20;6.40;;;;;;;10.57;62.56;100171.47;5052372;28;20387;-74
2024/03/23 05:57:29;;;;;;;16.47;6.40;;;;;;;10.19;63.99;100175.72;5034636;28;20237;-75
2024/03/23 05:59:54;;;;;;;17.63;6.07;;;;;;;10.58;63.10;100173.19;5034691;28;20201;-75
2024/03/23 06:02:19;;;;;;;22.27;6.20;;;;;;;10.55;62.40;100173.19;5052530;28;20177;-74
2024/03/23 06:04:45;;;;;;;17.90;7.07;;;;;;;10.34;63.47;100174.88;5052371;28;20220;-75
2024/03/23 06:07:13;;;;;;;20.03;7.03;;;;;;;10.43;63.44;100174.94;5038710;28;20205;-76
2024/03/23 06:09:39;;;;;;;15.70;6.40;;;;;;;10.57;62.95;100171.47;5032222;28;20413;-75
2024/03/23 06:12:05;;;;;;;23.33;8.00;;;;;;;10.84;62.51;100173.19;5031366;28;20417;-76
2024/03/23 06:14:30;;;;;;;20.70;6.30;;;;;;;10.45;62.42;100175.78;5047509;28;20413;-75
2024/03/23 06:16:55;;;;;;;15.30;6.20;;;;;;;10.87;62.30;100180.16;5030725;28;20194;-74
2024/03/23 06:19:21;;;;;;;13.67;6.40;;;;;;;10.64;62.60;100180.16;5031951;28;20694;-75
2024/03/23 06:21:46;;;;;;;15.50;7.00;;;;;;;10.37;63.37;100180.13;5032233;28;20182;-74
2024/03/23 06:24:12;;;;;;;14.60;5.40;;;;;;;10.54;63.59;100176.66;5032080;28;20252;-74
2024/03/23 06:26:37;;;;;;;19.63;5.90;;;;;;;10.59;62.41;100172.31;5047426;28;20209;-74
2024/03/23 06:29:03;;;;;;;22.93;5.87;;;;;;;10.34;63.69;100169.69;5031872;28;20167;-75
2024/03/23 06:31:28;;;;;;;23.10;6.57;;;;;;;10.60;63.08;100164.50;5042093;28;20173;-76
2024/03/23 06:33:55;;;;;;;21.13;6.70;;;;;;;9.86;64.22;100172.16;5051902;28;20165;-73
2024/03/23 06:36:20;;;;;;;16.57;5.93;;;;;;;10.29;63.75;100174.00;5051742;28;20166;-75
2024/03/23 06:38:45;;;;;;;16.43;6.03;;;;;;;11.11;61.83;100167.06;5051576;28;20415;-74
2024/03/23 06:41:11;;;;;;;11.70;5.30;;;;;;;10.37;62.98;100171.44;5033986;28;20192;-76
2024/03/23 06:43:36;;;;;;;18.30;5.80;;;;;;;10.71;62.13;100158.44;5051933;28;20252;-75
2024/03/23 06:46:04;;;;;;;20.73;7.10;;;;;;;10.86;62.13;100157.56;5052100;28;20170;-75
2024/03/23 06:48:29;;;;;;;21.40;6.07;;;;;;;11.15;61.47;100157.50;5052163;28;20223;-76
2024/03/23 06:50:57;;;;;;;16.40;5.77;;;;;;;11.12;60.71;100165.31;5033979;28;20414;-76
2024/03/23 06:53:23;;;;;;;14.63;6.27;;;;;;;10.96;61.39;100151.47;5033794;28;20256;-76
2024/03/23 06:55:55;;;;;;;22.80;7.40;;;;;;;10.27;62.61;100158.38;5033684;28;20470;-76
2024/03/23 06:58:21;;;;;;;16.07;6.00;;;;;;;10.10;62.91;100160.06;5051754;28;20562;-75
2024/03/23 07:00:46;;;;;;;18.53;6.03;;;;;;;10.02;63.79;100162.66;5033735;28;20521;-76
2024/03/23 07:03:12;;;;;;;15.90;6.50;;;;;;;10.57;62.56;100163.66;5033800;28;20397;-75
2024/03/23 07:05:37;;;;;;;19.57;6.13;;;;;;;10.17;63.21;100159.22;5033369;28;20524;-76
2024/03/23 07:08:03;;;;;;;18.27;6.53;;;;;;;10.76;62.18;100154.94;5031972;28;20617;-76
2024/03/23 07:10:28;;;;;;;15.83;6.23;;;;;;;10.75;62.30;100157.56;5032485;28;20163;-75
2024/03/23 07:12:53;;;;;;;15.27;5.30;;;;;;;11.16;61.02;100155.75;5032435;28;20634;-75
2024/03/23 07:15:19;;;;;;;14.80;6.43;;;;;;;11.20;61.24;100154.88;5031976;28;20198;-76
2024/03/23 07:17:47;;;;;;;14.90;6.17;;;;;;;11.23;60.69;100150.53;5032168;28;20202;-75
2024/03/23 07:20:13;;;;;;;16.30;6.03;;;;;;;11.61;60.60;100157.38;5032058;28;20190;-76
2024/03/23 07:22:38;;;;;;;20.10;6.70;;;;;;;11.21;60.93;100164.44;5033646;28;20470;-75
2024/03/23 07:25:05;;;;;;;17.90;5.87;;;;;;;11.35;61.17;100160.09;5036417;28;20174;-76
2024/03/23 07:27:31;;;;;;;18.57;6.80;;;;;;;11.79;59.82;100161.63;5035773;28;20202;-74
2024/03/23 07:29:56;;;;;;;20.17;6.80;;;;;;;11.42;60.12;100163.50;5036095;28;20382;-75
2024/03/23 07:32:21;;;;;;;23.57;6.53;;;;;;;10.02;63.12;100169.59;5053783;28;20169;-75
2024/03/23 07:34:47;;;;;;;16.63;6.30;;;;;;;10.92;60.66;100150.59;5056006;28;20170;-75
2024/03/23 07:37:12;;;;;;;18.00;6.73;;;;;;;11.15;60.27;100154.03;5055906;28;20223;-75
2024/03/23 07:39:39;;;;;;;18.30;5.50;;;;;;;10.26;61.67;100156.63;5055953;28;20674;-75
2024/03/23 07:42:05;;;;;;;22.37;6.93;;;;;;;11.40;60.51;100154.84;5056033;28;20166;-75
2024/03/23 07:44:30;;;;;;;14.80;6.00;;;;;;;11.51;60.75;100146.97;5055610;28;20892;-75
2024/03/23 07:46:56;;;;;;;18.67;6.30;;;;;;;11.83;59.91;100145.97;5055993;28;20276;-76
2024/03/23 07:49:21;;;;;;;16.90;6.40;;;;;;;12.88;59.40;100147.84;5055227;28;20166;-77
2024/03/23 07:51:46;;;;;;;16.43;6.33;;;;;;;12.34;58.84;100141.31;5054962;28;20173;-74
2024/03/23 07:54:12;;;;;;;16.90;6.40;;;;;;;12.26;57.92;100140.50;5037783;28;20215;-75
2024/03/23 07:56:37;;;;;;;16.23;7.00;;;;;;;11.77;59.49;100141.63;5054911;28;20670;-74
2024/03/23 07:59:03;;;;;;;16.23;5.93;;;;;;;11.43;59.50;100137.44;5054719;28;20812;-75
2024/03/23 08:01:28;;;;;;;13.73;5.80;;;;;;;12.30;58.19;100137.84;5054963;28;20177;-75
2024/03/23 08:03:54;;;;;;;19.23;9.53;;;;;;;12.35;57.91;100135.19;5054966;28;20193;-75
2024/03/23 08:06:22;;;;;;;15.93;6.10;;;;;;;12.54;57.78;100129.84;5047976;28;20179;-74
2024/03/23 08:08:50;;;;;;;22.63;7.03;;;;;;;12.86;57.32;100137.38;5034939;28;20185;-75
2024/03/23 08:11:16;;;;;;;14.23;5.53;;;;;;;12.89;56.30;100132.13;5034931;28;20384;-75
2024/03/23 08:13:44;;;;;;;20.27;5.77;;;;;;;12.64;57.12;100128.88;5034773;28;20416;-74
2024/03/23 08:16:10;;;;;;;20.83;6.23;;;;;;;11.94;58.09;100134.59;5034890;28;20173;-73
2024/03/23 08:18:36;;;;;;;12.30;5.80;;;;;;;13.04;56.06;100131.09;5033027;28;20851;-75
2024/03/23 08:21:05;;;;;;;15.03;5.80;;;;;;;12.27;56.85;100126.53;5035031;28;20205;-73
2024/03/23 08:23:38;;;;;;;19.83;8.03;;;;;;;12.80;56.97;100133.09;5034560;28;20171;-75
2024/03/23 08:26:05;;;;;;;23.10;7.47;;;;;;;12.68;56.49;100116.63;5049799;28;20483;-74
2024/03/23 08:28:31;;;;;;;13.30;6.00;;;;;;;13.07;55.46;100127.59;5036082;28;20387;-78
2024/03/23 08:30:56;;;;;;;17.23;6.03;;;;;;;13.30;55.40;100116.84;5041700;28;20412;-74
2024/03/23 08:33:25;;;;;;;8.77;5.20;;;;;;;13.16;55.39;100122.25;5054286;28;20261;-73
2024/03/23 08:35:58;;;;;;;14.73;5.20;;;;;;;13.20;55.23;100115.25;5054110;28;20188;-75
2024/03/23 08:38:25;;;;;;;13.57;5.27;;;;;;;13.20;55.31;100117.88;5053984;28;20399;-74
2024/03/23 08:41:04;;;;;;;18.00;5.63;;;;;;;12.72;55.04;100116.59;5054012;28;20451;-75
2024/03/23 08:43:31;;;;;;;13.97;4.90;;;;;;;12.27;56.09;100110.88;5053935;28;20419;-75
2024/03/23 08:46:11;;;;;;;14.33;5.13;;;;;;;13.19;54.33;100110.88;5053845;28;20491;-75
2024/03/23 08:48:38;;;;;;;12.80;6.80;;;;;;;13.23;54.23;100107.34;5054082;28;20412;-74
2024/03/23 08:51:05;;;;;;;16.33;7.10;;;;;;;13.07;54.61;100104.03;5052522;28;20424;-74
2024/03/23 08:53:31;;;;;;;17.33;7.90;;;;;;;12.88;54.61;100099.03;5036057;28;20391;-75
2024/03/23 08:55:58;;;;;;;14.23;5.40;;;;;;;13.60;53.59;100101.72;5036060;28;20416;-76
2024/03/23 08:58:24;;;;;;;12.53;5.33;;;;;;;13.51;53.64;100100.06;5035616;28;20426;-76
2024/03/23 09:00:56;;;;;;;11.03;5.27;;;;;;;13.47;52.59;100093.13;5053638;28;20831;-74
2024/03/23 09:03:22;;;;;;;13.73;5.60;;;;;;;14.00;52.31;100097.66;5054047;28;20912;-75
2024/03/23 09:05:47;;;;;;;23.93;11.83;;;;;;;14.42;50.38;100090.00;5033353;28;20512;-75
2024/03/23 09:08:13;;;;;;;16.10;5.40;;;;;;;14.10;49.68;100087.00;5033061;28;20966;-77
2024/03/23 09:10:39;;;;;;;14.53;5.10;;;;;;;14.32;49.72;100084.91;5033863;28;20681;-77
2024/03/23 09:13:04;;;;;;;7.27;4.13;;;;;;;14.12;50.02;100090.47;5034708;28;20307;-76
2024/03/23 09:15:31;;;;;;;17.20;5.90;;;;;;;13.68;50.95;100093.72;5034334;28;20902;-74
2024/03/23 09:17:56;;;;;;;10.43;5.20;;;;;;;12.91;52.21;100100.75;5032230;28;20198;-75
2024/03/23 09:20:21;;;;;;;17.23;6.13;;;;;;;13.21;51.12;100099.53;5033140;28;20967;-76
2024/03/23 09:22:48;;;;;;;11.47;5.20;;;;;;;13.22;50.21;100098.66;5031987;28;20202;-75
2024/03/23 09:25:13;;;;;;;11.90;5.20;;;;;;;12.76;50.81;100100.00;5034428;28;20609;-76
2024/03/23 09:27:39;;;;;;;11.70;4.10;;;;;;;12.30;50.81;100090.81;5048900;28;20419;-75
2024/03/23 09:30:05;;;;;;;11.93;6.53;;;;;;;12.39;50.42;100094.22;5033061;28;20174;-76
2024/03/23 09:32:30;;;;;;;12.27;6.23;;;;;;;12.33;50.00;100096.91;5051890;28;20670;-75
2024/03/23 09:34:55;;;;;;;9.23;4.73;;;;;;;12.11;50.87;100100.53;5053054;28;20395;-76
2024/03/23 09:37:21;;;;;;;12.93;5.60;;;;;;;12.94;49.53;100088.47;5053172;28;20196;-76
2024/03/23 09:39:46;;;;;;;9.73;4.50;;;;;;;12.47;49.76;100089.78;5052562;28;20201;-76
2024/03/23 09:42:11;;;;;;;15.90;5.20;;;;;;;12.84;49.85;100083.34;5034790;28;20276;-77
2024/03/23 09:44:37;;;;;;;8.07;4.80;;;;;;;12.47;50.92;100089.78;5052732;28;20225;-76
2024/03/23 09:47:02;;;;;;;10.37;4.63;;;;;;;12.76;50.09;100086.91;5052985;28;20203;-75
2024/03/23 09:49:29;;;;;;;9.60;5.03;;;;;;;13.46;48.38;100084.44;5053109;28;20166;-75
2024/03/23 09:51:55;;;;;;;13.00;6.83;;;;;;;13.18;48.77;100082.97;5053096;28;20174;-75
2024/03/23 09:54:21;;;;;;;11.73;6.10;;;;;;;13.06;48.88;100082.25;5053296;28;20386;-74
2024/03/23 09:56:47;;;;;;;12.03;5.30;;;;;;;13.35;49.00;100081.03;5078204;22;20619;-75
2024/03/23 09:59:12;;;;;;;10.10;4.73;;;;;;;12.75;50.20;100072.09;5072906;28;20511;-76
2024/03/23 10:01:37;;;;;;;12.90;4.60;;;;;;;13.76;49.53;100069.19;5073025;28;20206;-76
2024/03/23 10:04:03;;;;;;;9.70;4.77;;;;;;;13.50;49.51;100072.13;5072972;28;20188;-76
2024/03/23 10:06:28;;;;;;;14.17;4.83;;;;;;;12.87;49.40;100076.34;5072950;28;20200;-76
2024/03/23 10:08:54;;;;;;;12.73;4.77;;;;;;;14.44;47.25;100057.63;5072769;28;20169;-76
2024/03/23 10:11:21;;;;;;;11.37;4.30;;;;;;;14.92;45.60;100051.53;5073206;28;20201;-75
2024/03/23 10:13:46;;;;;;;9.50;3.80;;;;;;;15.31;44.47;100040.25;5073495;28;20983;-75
2024/03/23 10:16:12;;;;;;;8.93;4.47;;;;;;;14.32;45.22;100042.09;5073027;28;20441;-75
2024/03/23 10:18:39;;;;;;;9.70;4.70;;;;;;;14.29;46.13;100042.16;5072713;28;20199;-74
2024/03/23 10:21:11;;;;;;;10.20;4.57;;;;;;;14.42;45.94;100040.19;5072719;28;20441;-75
2024/03/23 10:23:41;;;;;;;9.80;3.80;;;;;;;13.80;44.90;100044.66;5073596;28;20382;-76
2024/03/23 10:26:23;;;;;;;7.70;4.00;;;;;;;13.76;46.89;100042.97;5072440;28;20415;-74
2024/03/23 10:28:58;;;;;;;17.63;5.20;;;;;;;13.92;47.66;100037.50;5072919;28;20838;-76
2024/03/23 10:31:23;;;;;;;14.03;4.53;;;;;;;14.04;49.93;100045.16;5071280;28;20450;-76
2024/03/23 10:33:49;;;;;;;9.30;4.87;;;;;;;13.05;50.81;100048.25;5073540;28;20403;-76
2024/03/23 10:36:15;;;;;;;8.33;3.80;;;;;;;12.86;51.65;100052.81;5073078;28;20260;-75
2024/03/23 10:38:41;;;;;;;9.50;4.60;;;;;;;13.11;52.27;100056.00;5072809;28;20568;-74
2024/03/23 10:41:10;;;;;;;8.63;4.30;;;;;;;13.71;52.24;100047.41;5072259;28;20177;-76
2024/03/23 10:43:36;;;;;;;14.60;5.90;;;;;;;13.20;53.00;100048.06;5073430;28;20418;-76
2024/03/23 10:46:01;;;;;;;10.70;5.10;;;;;;;13.87;53.54;100039.31;5073589;28;20921;-76
2024/03/23 10:48:26;;;;;;;9.87;4.60;;;;;;;13.01;54.21;100046.56;5072695;28;20393;-75
2024/03/23 10:50:53;;;;;;;12.43;5.03;;;;;;;13.14;54.01;100037.69;5072894;28;20626;-74
2024/03/23 10:53:19;;;;;;;10.00;4.43;;;;;;;13.22;53.37;100037.56;5073491;28;20259;-74
2024/03/23 10:55:45;;;;;;;8.73;4.80;;;;;;;12.73;53.78;100034.66;5072918;28;20390;-74
2024/03/23 10:58:36;;;;;;;11.90;5.97;;;;;;;12.96;53.46;100038.75;5076109;28;20502;-77
2024/03/23 11:01:12;;;;;;;12.17;5.63;;;;;;;13.41;51.90;100028.63;5077109;28;20218;-76
2024/03/23 11:03:38;;;;;;;8.57;4.20;;;;;;;14.64;49.36;100020.59;5077123;28;20377;-75
2024/03/23 11:06:10;;;;;;;7.63;3.87;;;;;;;15.81;47.82;100009.38;5072883;28;20447;-76
2024/03/23 11:08:37;;;;;;;6.93;3.83;;;;;;;16.43;47.03;100002.59;5056762;28;20939;-74
2024/03/23 11:11:19;;;;;;;7.00;4.20;;;;;;;17.39;43.97;99999.91;5056730;28;20386;-75